HOS Dominator — WDA6788 — position and weather

sailwx.info

Track history (hours):
 
Tides and Currents Weather Stations Pressure Air Temp Water Temp Dewpoint Dewpoint Depression Visibility Wind Speed Wind Dir Waves Ship Positions

HOS Dominator

Owner: Hornbeck Offshore Services, LLC, Covington, LA. More information available from US FCC via Universal Licensing System and Coast Guard Vessel Documentation Center.

Last reported at 2017-Aug-31 09:03 UTC. Time now 2017-Sep-21 07:12 UTC.
Position N 30°57' W 123°28'.
Warning: this ship's position is 20 days out of date.

Length 80 m; draft 3.6 m.

Type: Cargo ship. MMSI: 369077000.

Date/timePositionNaut miles runAvg speedWind from/ knotsBaromVisibWave heightAir tempDewpointWater temp
2017-Aug-31 09:03N 30°57' W 123°28'1 9.3
2017-Aug-31 08:55N 30°57' W 123°26'6 9.5
2017-Aug-31 08:18N 30°59' W 123°20'3 9.4
2017-Aug-31 08:01N 30°60' W 123°17'5 9.5
2017-Aug-31 07:31N 31°01' W 123°12'56 9.5
2017-Aug-31 01:38N 31°18' W 122°09'3 9.5
2017-Aug-31 01:17N 31°19' W 122°06'3 9.5
2017-Aug-31 01:01N 31°20' W 122°03'5 9.7
2017-Aug-31 00:28N 31°21' W 121°57'4 9.6
2017-Aug-31 00:00N 31°23' W 121°52'5 9.7
2017-Aug-30 23:30N 31°24' W 121°46'5 9.5
2017-Aug-30 23:01N 31°26' W 121°41'5 9.3
2017-Aug-30 22:30N 31°27' W 121°36'5 9.4
2017-Aug-30 21:59N 31°29' W 121°31'13 9.4
2017-Aug-30 20:38N 31°33' W 121°17'1 9.2
2017-Aug-30 20:31N 31°33' W 121°15'20 9.0
2017-Aug-30 18:14N 31°40' W 120°53'2 9.0
2017-Aug-30 18:00N 31°41' W 120°50'5 8.9
2017-Aug-30 17:24N 31°43' W 120°44'7 9.1
2017-Aug-30 16:40N 31°45' W 120°37'1 9.1
2017-Aug-30 16:31N 31°46' W 120°36'5 9.1
2017-Aug-30 16:00N 31°48' W 120°31'4 7.2
2017-Aug-30 15:30N 31°48' W 120°26'3 6.0
2017-Aug-30 15:00N 31°47' W 120°23'5 9.3
2017-Aug-30 14:30N 31°49' W 120°18'5 9.3
2017-Aug-30 14:00N 31°50' W 120°12'5 9.3
2017-Aug-30 13:31N 31°51' W 120°07'5 9.5
2017-Aug-30 13:00N 31°53' W 120°02'5 9.5
2017-Aug-30 12:30N 31°54' W 119°57'5 9.5
2017-Aug-30 12:01N 31°56' W 119°51'5 9.7
2017-Aug-30 11:30N 31°57' W 119°46'5 9.8
2017-Aug-30 11:01N 31°59' W 119°40'5 9.7
2017-Aug-30 10:31N 32°00' W 119°35'5 9.8
2017-Aug-30 10:01N 32°01' W 119°29'5 9.6
2017-Aug-30 09:30N 32°03' W 119°24'5 9.5
2017-Aug-30 09:00N 32°04' W 119°19'5 9.7
2017-Aug-30 08:31N 32°06' W 119°13'5 9.2
2017-Aug-30 08:00N 32°07' W 119°08'5 9.7
2017-Aug-30 07:31N 32°08' W 119°02'510.0
2017-Aug-30 07:01N 32°10' W 118°57'510.1
2017-Aug-30 06:31N 32°12' W 118°51'510.2
2017-Aug-30 06:00N 32°13' W 118°45'510.2
2017-Aug-30 05:31N 32°15' W 118°40'510.3
2017-Aug-30 05:01N 32°16' W 118°34'5 9.9
2017-Aug-30 04:31N 32°18' W 118°28'5 9.8
2017-Aug-30 04:01N 32°19' W 118°23'5 9.5
2017-Aug-30 03:30N 32°21' W 118°17'5 9.5
2017-Aug-30 03:01N 32°22' W 118°12'5 9.3
2017-Aug-30 02:31N 32°24' W 118°07'5 9.2
2017-Aug-30 02:00N 32°25' W 118°02'5 9.3
2017-Aug-30 01:31N 32°26' W 117°56'5 9.4
2017-Aug-30 01:01N 32°27' W 117°51'5 9.3
2017-Aug-30 00:31N 32°28' W 117°45'5 9.4
2017-Aug-30 00:01N 32°29' W 117°40'5 9.5
2017-Aug-29 23:31N 32°30' W 117°34'5 9.6
2017-Aug-29 23:01N 32°30' W 117°29'5 9.6
2017-Aug-29 22:30N 32°31' W 117°23'4 8.1
2017-Aug-29 22:00N 32°33' W 117°19'5 9.2
2017-Aug-29 21:31N 32°37' W 117°17'4 8.2
2017-Aug-29 21:00N 32°40' W 117°14'2 3.9
2017-Aug-29 20:31N 32°42' W 117°14'0 0.0
2017-Aug-29 19:59N 32°42' W 117°14'0 0.0
2017-Aug-29 19:26N 32°42' W 117°14'0 0.0
2017-Aug-29 18:59N 32°42' W 117°14'0 0.0
2017-Aug-29 18:29N 32°42' W 117°14'0 0.0
2017-Aug-29 17:59N 32°42' W 117°14'0 0.0
2017-Aug-29 17:29N 32°42' W 117°14'0 0.0
2017-Aug-29 16:59N 32°42' W 117°14'0 0.0
2017-Aug-29 16:29N 32°42' W 117°14'0 0.3
2017-Aug-29 16:00N 32°42' W 117°14'3 5.5
2017-Aug-29 15:30N 32°43' W 117°11'0 0.3
2017-Aug-29 14:16N 32°42' W 117°11'0 0.0
2017-Aug-29 13:58N 32°42' W 117°11'0 0.0
2017-Aug-29 13:28N 32°42' W 117°11'0 0.0
2017-Aug-29 12:58N 32°42' W 117°11'0 0.0
2017-Aug-29 12:10N 32°42' W 117°11'0 0.0
2017-Aug-29 11:52N 32°42' W 117°11'0 0.0
2017-Aug-29 09:58N 32°42' W 117°11'0 0.0
2017-Aug-29 09:22N 32°42' W 117°11'0 0.0
2017-Aug-29 08:10N 32°42' W 117°11'0 0.0
2017-Aug-29 07:46N 32°42' W 117°11'0 0.0
2017-Aug-29 06:16N 32°42' W 117°11'0 0.0
2017-Aug-29 05:46N 32°42' W 117°11'0 0.0
2017-Aug-29 05:28N 32°42' W 117°11'0 0.0
2017-Aug-29 04:58N 32°42' W 117°11'0 0.0
2017-Aug-29 03:31N 32°42' W 117°11'0 0.0
2017-Aug-29 03:28N 32°42' W 117°11'0 0.0
2017-Aug-29 02:58N 32°42' W 117°11'0 0.0
2017-Aug-29 02:28N 32°42' W 117°11'0 0.0
2017-Aug-29 01:58N 32°42' W 117°11'0 0.0
2017-Aug-29 01:22N 32°42' W 117°11'0 0.0
2017-Aug-29 00:58N 32°42' W 117°11'0 0.0
2017-Aug-29 00:07N 32°42' W 117°11'0 0.0
2017-Aug-28 22:31N 32°42' W 117°11'0 0.0
2017-Aug-28 22:28N 32°42' W 117°11'0 0.0
2017-Aug-28 20:07N 32°42' W 117°11'0 0.0
2017-Aug-28 17:07N 32°42' W 117°11'0 0.0
2017-Aug-28 16:07N 32°42' W 117°11'0 0.0
2017-Aug-28 15:58N 32°42' W 117°11'0 0.0
2017-Aug-28 15:28N 32°42' W 117°11'0 0.0
2017-Aug-28 14:58N 32°42' W 117°11'0 0.0
2017-Aug-28 14:22N 32°42' W 117°11'0 0.0
2017-Aug-28 12:28N 32°42' W 117°11'0 0.0
2017-Aug-28 11:52N 32°42' W 117°11'0 0.0
2017-Aug-28 08:52N 32°42' W 117°11'0 0.0
2017-Aug-28 08:28N 32°42' W 117°11'0 0.0
2017-Aug-28 07:58N 32°42' W 117°11'0 0.0
2017-Aug-28 07:28N 32°42' W 117°11'0 0.0
2017-Aug-28 04:55N 32°42' W 117°11'0 0.0
2017-Aug-28 04:16N 32°42' W 117°11'0 0.0
2017-Aug-28 03:55N 32°42' W 117°11'0 0.0
2017-Aug-28 03:25N 32°42' W 117°11'0 0.0
2017-Aug-28 02:58N 32°42' W 117°11'0 0.0
2017-Aug-28 02:07N 32°42' W 117°11'0 0.0
2017-Aug-28 01:55N 32°42' W 117°11'0 0.0
2017-Aug-28 01:25N 32°42' W 117°11'0 0.0
2017-Aug-28 00:52N 32°42' W 117°11'0 0.0
2017-Aug-28 00:13N 32°42' W 117°11'0 0.0
2017-Aug-27 23:58N 32°42' W 117°11'0 0.0
2017-Aug-27 20:55N 32°42' W 117°11'0 0.0
2017-Aug-27 20:22N 32°42' W 117°11'0 0.0
2017-Aug-27 19:58N 32°42' W 117°11'0 0.0
2017-Aug-27 19:25N 32°42' W 117°11'0 0.0
2017-Aug-27 18:55N 32°42' W 117°11'0 0.0
2017-Aug-27 18:28N 32°42' W 117°11'0 0.0
2017-Aug-27 17:10N 32°42' W 117°11'0 0.0
2017-Aug-27 13:25N 32°42' W 117°11'0 0.0
2017-Aug-27 08:34N 32°42' W 117°11'0 0.0
2017-Aug-26 23:31N 32°42' W 117°11'0 0.0
2017-Aug-26 23:19N 32°42' W 117°11'0 0.0
2017-Aug-26 22:55N 32°42' W 117°11'0 0.0
2017-Aug-26 22:19N 32°42' W 117°11'0 0.0
2017-Aug-26 21:55N 32°42' W 117°11'0 0.0
2017-Aug-26 20:40N 32°42' W 117°11'0 0.0
2017-Aug-26 20:25N 32°42' W 117°11'0 0.0
2017-Aug-26 19:58N 32°42' W 117°11'0 0.0
2017-Aug-26 19:25N 32°42' W 117°11'0 0.0
2017-Aug-26 18:55N 32°42' W 117°11'0 0.0
2017-Aug-26 18:19N 32°42' W 117°11'0 0.0
2017-Aug-26 17:49N 32°42' W 117°11'0 0.0
2017-Aug-26 17:28N 32°42' W 117°11'0 0.0
2017-Aug-26 16:55N 32°42' W 117°11'0 0.0
2017-Aug-26 15:58N 32°42' W 117°11'0 0.0
2017-Aug-26 02:58N 32°42' W 117°11'0 0.0
2017-Aug-26 02:28N 32°42' W 117°11'0 0.0
2017-Aug-26 01:04N 32°42' W 117°11'0 0.0
2017-Aug-26 00:34N 32°42' W 117°11'0 0.0
2017-Aug-25 23:46N 32°42' W 117°11'0 0.0
2017-Aug-25 23:22N 32°42' W 117°11'0 0.0
2017-Aug-25 22:52N 32°42' W 117°11'0 0.0
2017-Aug-25 22:28N 32°42' W 117°11'0 0.0
2017-Aug-25 21:46N 32°42' W 117°11'0 0.0
2017-Aug-25 21:28N 32°42' W 117°11'0 0.0
2017-Aug-25 20:52N 32°42' W 117°11'0 0.0
2017-Aug-25 20:28N 32°42' W 117°11'0 0.0
2017-Aug-25 19:52N 32°42' W 117°11'0 0.0
2017-Aug-25 19:22N 32°42' W 117°11'0 0.0
2017-Aug-25 18:40N 32°42' W 117°11'0 0.0
2017-Aug-25 18:28N 32°42' W 117°11'0 0.0
2017-Aug-25 17:58N 32°42' W 117°11'0 0.0
2017-Aug-25 17:28N 32°42' W 117°11'0 0.0
2017-Aug-25 16:52N 32°42' W 117°11'0 0.0
2017-Aug-25 15:40N 32°42' W 117°11'0 0.0
2017-Aug-25 15:28N 32°42' W 117°11'0 0.0
2017-Aug-25 14:46N 32°42' W 117°11'0 0.0
2017-Aug-25 13:46N 32°42' W 117°11'0 0.0
2017-Aug-25 13:28N 32°42' W 117°11'0 0.0
2017-Aug-25 12:58N 32°42' W 117°11'0 0.0
2017-Aug-25 12:28N 32°42' W 117°11'0 0.0
2017-Aug-25 11:58N 32°42' W 117°11'0 0.0
2017-Aug-25 11:22N 32°42' W 117°11'0 0.0
2017-Aug-25 10:58N 32°42' W 117°11'0 0.0
2017-Aug-25 10:28N 32°42' W 117°11'0 0.0
2017-Aug-25 08:52N 32°42' W 117°11'0 0.0
2017-Aug-25 06:16N 32°42' W 117°11'0 0.0
2017-Aug-25 04:04N 32°42' W 117°11'0 0.0
2017-Aug-25 03:52N 32°42' W 117°11'0 0.0
2017-Aug-25 03:28N 32°42' W 117°11'0 0.0
2017-Aug-25 01:46N 32°42' W 117°11'0 0.0
2017-Aug-25 01:10N 32°42' W 117°11'0 0.0
2017-Aug-24 23:40N 32°42' W 117°11'0 0.0
2017-Aug-24 23:22N 32°42' W 117°11'0 0.0
2017-Aug-24 22:52N 32°42' W 117°11'0 0.0
2017-Aug-24 22:28N 32°42' W 117°11'0 0.0
2017-Aug-24 20:34N 32°42' W 117°11'0 0.0
2017-Aug-24 20:22N 32°42' W 117°11'0 0.0
2017-Aug-24 19:40N 32°42' W 117°11'0 0.0
2017-Aug-24 19:28N 32°42' W 117°11'0 0.0
2017-Aug-24 17:52N 32°42' W 117°11'0 0.0
2017-Aug-24 17:28N 32°42' W 117°11'0 0.0
2017-Aug-24 16:52N 32°42' W 117°11'0 0.0
2017-Aug-24 13:52N 32°42' W 117°11'0 0.0
2017-Aug-24 13:28N 32°42' W 117°11'0 0.0
2017-Aug-24 12:58N 32°42' W 117°11'0 0.0
2017-Aug-24 12:22N 32°42' W 117°11'0 0.0
2017-Aug-24 11:46N 32°42' W 117°11'0 0.0
2017-Aug-24 11:16N 32°42' W 117°11'0 0.0
2017-Aug-24 10:58N 32°42' W 117°11'0 0.0
2017-Aug-24 09:16N 32°42' W 117°11'0 0.0
2017-Aug-24 08:46N 32°42' W 117°11'0 0.0
2017-Aug-24 06:58N 32°42' W 117°11'0 0.0
2017-Aug-24 06:22N 32°42' W 117°11'0 0.0
2017-Aug-24 04:46N 32°42' W 117°11'0 0.0
2017-Aug-24 02:04N 32°42' W 117°11'0 0.0
2017-Aug-23 23:55N 32°42' W 117°11'0 0.0
2017-Aug-23 22:10N 32°42' W 117°11'0 0.0
2017-Aug-23 20:52N 32°42' W 117°11'0 0.0
2017-Aug-23 20:16N 32°42' W 117°11'0 0.0
2017-Aug-23 17:58N 32°42' W 117°11'0 0.0
2017-Aug-23 15:28N 32°42' W 117°11'0 0.0
2017-Aug-23 14:52N 32°42' W 117°11'0 0.0
2017-Aug-23 14:28N 32°42' W 117°11'0 0.0
2017-Aug-23 13:28N 32°42' W 117°11'0 0.0
2017-Aug-23 12:16N 32°42' W 117°11'0 0.0
2017-Aug-23 11:58N 32°42' W 117°11'0 0.0
2017-Aug-23 11:22N 32°42' W 117°11'0 0.0
2017-Aug-23 10:10N 32°42' W 117°11'0 0.0
2017-Aug-23 09:58N 32°42' W 117°11'0 0.0
2017-Aug-23 03:01N 32°42' W 117°11'0 0.0
2017-Aug-23 02:40N 32°42' W 117°11'0 0.0
2017-Aug-23 02:28N 32°42' W 117°11'0 0.0
2017-Aug-23 01:58N 32°42' W 117°11'0 0.0
2017-Aug-23 01:22N 32°42' W 117°11'0 0.0
2017-Aug-22 23:46N 32°42' W 117°11'0 0.0
2017-Aug-22 23:16N 32°42' W 117°11'0 0.0
2017-Aug-22 22:58N 32°42' W 117°11'0 0.0
2017-Aug-22 21:40N 32°42' W 117°11'0 0.0
2017-Aug-22 21:22N 32°42' W 117°11'0 0.0
2017-Aug-22 20:52N 32°42' W 117°11'0 0.0
2017-Aug-22 16:37N 32°42' W 117°11'0 0.0
2017-Aug-22 13:22N 32°42' W 117°11'0 0.0
2017-Aug-22 12:40N 32°42' W 117°11'0 0.0
2017-Aug-22 12:28N 32°42' W 117°11'0 0.0
2017-Aug-22 11:52N 32°42' W 117°11'0 0.0
2017-Aug-22 10:46N 32°42' W 117°11'0 0.0
2017-Aug-22 10:16N 32°42' W 117°11'0 0.0
2017-Aug-22 00:58N 32°42' W 117°11'0 0.0
2017-Aug-21 13:40N 32°42' W 117°11'0 0.0
2017-Aug-21 11:28N 32°42' W 117°11'0 0.0
2017-Aug-21 10:58N 32°42' W 117°11'0 0.0
2017-Aug-21 10:22N 32°42' W 117°11'0 0.0
2017-Aug-21 09:16N 32°42' W 117°11'  
Track history (hours):
 
Tides and Currents Weather Stations Pressure Air Temp Water Temp Dewpoint Dewpoint Depression Visibility Wind Speed Wind Dir Waves Ship Positions

HOS Dominator

Owner: Hornbeck Offshore Services, LLC, Covington, LA. More information available from US FCC via Universal Licensing System and Coast Guard Vessel Documentation Center.

Last reported at 2017-Aug-31 09:03 UTC. Time now 2017-Sep-21 07:12 UTC.
Position N 30°57' W 123°28'.
Warning: this ship's position is 20 days out of date.

Length 80 m; draft 3.6 m.

Type: Cargo ship. MMSI: 369077000.

Date/timePositionNaut miles runAvg speedWind from/ knotsBaromVisibWave heightAir tempDewpointWater temp
2017-Aug-31 09:03N 30°57' W 123°28'1 9.3
2017-Aug-31 08:55N 30°57' W 123°26'6 9.5
2017-Aug-31 08:18N 30°59' W 123°20'3 9.4
2017-Aug-31 08:01N 30°60' W 123°17'5 9.5
2017-Aug-31 07:31N 31°01' W 123°12'56 9.5
2017-Aug-31 01:38N 31°18' W 122°09'3 9.5
2017-Aug-31 01:17N 31°19' W 122°06'3 9.5
2017-Aug-31 01:01N 31°20' W 122°03'5 9.7
2017-Aug-31 00:28N 31°21' W 121°57'4 9.6
2017-Aug-31 00:00N 31°23' W 121°52'5 9.7
2017-Aug-30 23:30N 31°24' W 121°46'5 9.5
2017-Aug-30 23:01N 31°26' W 121°41'5 9.3
2017-Aug-30 22:30N 31°27' W 121°36'5 9.4
2017-Aug-30 21:59N 31°29' W 121°31'13 9.4
2017-Aug-30 20:38N 31°33' W 121°17'1 9.2
2017-Aug-30 20:31N 31°33' W 121°15'20 9.0
2017-Aug-30 18:14N 31°40' W 120°53'2 9.0
2017-Aug-30 18:00N 31°41' W 120°50'5 8.9
2017-Aug-30 17:24N 31°43' W 120°44'7 9.1
2017-Aug-30 16:40N 31°45' W 120°37'1 9.1
2017-Aug-30 16:31N 31°46' W 120°36'5 9.1
2017-Aug-30 16:00N 31°48' W 120°31'4 7.2
2017-Aug-30 15:30N 31°48' W 120°26'3 6.0
2017-Aug-30 15:00N 31°47' W 120°23'5 9.3
2017-Aug-30 14:30N 31°49' W 120°18'5 9.3
2017-Aug-30 14:00N 31°50' W 120°12'5 9.3
2017-Aug-30 13:31N 31°51' W 120°07'5 9.5
2017-Aug-30 13:00N 31°53' W 120°02'5 9.5
2017-Aug-30 12:30N 31°54' W 119°57'5 9.5
2017-Aug-30 12:01N 31°56' W 119°51'5 9.7
2017-Aug-30 11:30N 31°57' W 119°46'5 9.8
2017-Aug-30 11:01N 31°59' W 119°40'5 9.7
2017-Aug-30 10:31N 32°00' W 119°35'5 9.8
2017-Aug-30 10:01N 32°01' W 119°29'5 9.6
2017-Aug-30 09:30N 32°03' W 119°24'5 9.5
2017-Aug-30 09:00N 32°04' W 119°19'5 9.7
2017-Aug-30 08:31N 32°06' W 119°13'5 9.2
2017-Aug-30 08:00N 32°07' W 119°08'5 9.7
2017-Aug-30 07:31N 32°08' W 119°02'510.0
2017-Aug-30 07:01N 32°10' W 118°57'510.1
2017-Aug-30 06:31N 32°12' W 118°51'510.2
2017-Aug-30 06:00N 32°13' W 118°45'510.2
2017-Aug-30 05:31N 32°15' W 118°40'510.3
2017-Aug-30 05:01N 32°16' W 118°34'5 9.9
2017-Aug-30 04:31N 32°18' W 118°28'5 9.8
2017-Aug-30 04:01N 32°19' W 118°23'5 9.5
2017-Aug-30 03:30N 32°21' W 118°17'5 9.5
2017-Aug-30 03:01N 32°22' W 118°12'5 9.3
2017-Aug-30 02:31N 32°24' W 118°07'5 9.2
2017-Aug-30 02:00N 32°25' W 118°02'5 9.3
2017-Aug-30 01:31N 32°26' W 117°56'5 9.4
2017-Aug-30 01:01N 32°27' W 117°51'5 9.3
2017-Aug-30 00:31N 32°28' W 117°45'5 9.4
2017-Aug-30 00:01N 32°29' W 117°40'5 9.5
2017-Aug-29 23:31N 32°30' W 117°34'5 9.6
2017-Aug-29 23:01N 32°30' W 117°29'5 9.6
2017-Aug-29 22:30N 32°31' W 117°23'4 8.1
2017-Aug-29 22:00N 32°33' W 117°19'5 9.2
2017-Aug-29 21:31N 32°37' W 117°17'4 8.2
2017-Aug-29 21:00N 32°40' W 117°14'2 3.9
2017-Aug-29 20:31N 32°42' W 117°14'0 0.0
2017-Aug-29 19:59N 32°42' W 117°14'0 0.0
2017-Aug-29 19:26N 32°42' W 117°14'0 0.0
2017-Aug-29 18:59N 32°42' W 117°14'0 0.0
2017-Aug-29 18:29N 32°42' W 117°14'0 0.0
2017-Aug-29 17:59N 32°42' W 117°14'0 0.0
2017-Aug-29 17:29N 32°42' W 117°14'0 0.0
2017-Aug-29 16:59N 32°42' W 117°14'0 0.0
2017-Aug-29 16:29N 32°42' W 117°14'0 0.3
2017-Aug-29 16:00N 32°42' W 117°14'3 5.5
2017-Aug-29 15:30N 32°43' W 117°11'0 0.3
2017-Aug-29 14:16N 32°42' W 117°11'0 0.0
2017-Aug-29 13:58N 32°42' W 117°11'0 0.0
2017-Aug-29 13:28N 32°42' W 117°11'0 0.0
2017-Aug-29 12:58N 32°42' W 117°11'0 0.0
2017-Aug-29 12:10N 32°42' W 117°11'0 0.0
2017-Aug-29 11:52N 32°42' W 117°11'0 0.0
2017-Aug-29 09:58N 32°42' W 117°11'0 0.0
2017-Aug-29 09:22N 32°42' W 117°11'0 0.0
2017-Aug-29 08:10N 32°42' W 117°11'0 0.0
2017-Aug-29 07:46N 32°42' W 117°11'0 0.0
2017-Aug-29 06:16N 32°42' W 117°11'0 0.0
2017-Aug-29 05:46N 32°42' W 117°11'0 0.0
2017-Aug-29 05:28N 32°42' W 117°11'0 0.0
2017-Aug-29 04:58N 32°42' W 117°11'0 0.0
2017-Aug-29 03:31N 32°42' W 117°11'0 0.0
2017-Aug-29 03:28N 32°42' W 117°11'0 0.0
2017-Aug-29 02:58N 32°42' W 117°11'0 0.0
2017-Aug-29 02:28N 32°42' W 117°11'0 0.0
2017-Aug-29 01:58N 32°42' W 117°11'0 0.0
2017-Aug-29 01:22N 32°42' W 117°11'0 0.0
2017-Aug-29 00:58N 32°42' W 117°11'0 0.0
2017-Aug-29 00:07N 32°42' W 117°11'0 0.0
2017-Aug-28 22:31N 32°42' W 117°11'0 0.0
2017-Aug-28 22:28N 32°42' W 117°11'0 0.0
2017-Aug-28 20:07N 32°42' W 117°11'0 0.0
2017-Aug-28 17:07N 32°42' W 117°11'0 0.0
2017-Aug-28 16:07N 32°42' W 117°11'0 0.0
2017-Aug-28 15:58N 32°42' W 117°11'0 0.0
2017-Aug-28 15:28N 32°42' W 117°11'0 0.0
2017-Aug-28 14:58N 32°42' W 117°11'0 0.0
2017-Aug-28 14:22N 32°42' W 117°11'0 0.0
2017-Aug-28 12:28N 32°42' W 117°11'0 0.0
2017-Aug-28 11:52N 32°42' W 117°11'0 0.0
2017-Aug-28 08:52N 32°42' W 117°11'0 0.0
2017-Aug-28 08:28N 32°42' W 117°11'0 0.0
2017-Aug-28 07:58N 32°42' W 117°11'0 0.0
2017-Aug-28 07:28N 32°42' W 117°11'0 0.0
2017-Aug-28 04:55N 32°42' W 117°11'0 0.0
2017-Aug-28 04:16N 32°42' W 117°11'0 0.0
2017-Aug-28 03:55N 32°42' W 117°11'0 0.0
2017-Aug-28 03:25N 32°42' W 117°11'0 0.0
2017-Aug-28 02:58N 32°42' W 117°11'0 0.0
2017-Aug-28 02:07N 32°42' W 117°11'0 0.0
2017-Aug-28 01:55N 32°42' W 117°11'0 0.0
2017-Aug-28 01:25N 32°42' W 117°11'0 0.0
2017-Aug-28 00:52N 32°42' W 117°11'0 0.0
2017-Aug-28 00:13N 32°42' W 117°11'0 0.0
2017-Aug-27 23:58N 32°42' W 117°11'0 0.0
2017-Aug-27 20:55N 32°42' W 117°11'0 0.0
2017-Aug-27 20:22N 32°42' W 117°11'0 0.0
2017-Aug-27 19:58N 32°42' W 117°11'0 0.0
2017-Aug-27 19:25N 32°42' W 117°11'0 0.0
2017-Aug-27 18:55N 32°42' W 117°11'0 0.0
2017-Aug-27 18:28N 32°42' W 117°11'0 0.0
2017-Aug-27 17:10N 32°42' W 117°11'0 0.0
2017-Aug-27 13:25N 32°42' W 117°11'0 0.0
2017-Aug-27 08:34N 32°42' W 117°11'0 0.0
2017-Aug-26 23:31N 32°42' W 117°11'0 0.0
2017-Aug-26 23:19N 32°42' W 117°11'0 0.0
2017-Aug-26 22:55N 32°42' W 117°11'0 0.0
2017-Aug-26 22:19N 32°42' W 117°11'0 0.0
2017-Aug-26 21:55N 32°42' W 117°11'0 0.0
2017-Aug-26 20:40N 32°42' W 117°11'0 0.0
2017-Aug-26 20:25N 32°42' W 117°11'0 0.0
2017-Aug-26 19:58N 32°42' W 117°11'0 0.0
2017-Aug-26 19:25N 32°42' W 117°11'0 0.0
2017-Aug-26 18:55N 32°42' W 117°11'0 0.0
2017-Aug-26 18:19N 32°42' W 117°11'0 0.0
2017-Aug-26 17:49N 32°42' W 117°11'0 0.0
2017-Aug-26 17:28N 32°42' W 117°11'0 0.0
2017-Aug-26 16:55N 32°42' W 117°11'0 0.0
2017-Aug-26 15:58N 32°42' W 117°11'0 0.0
2017-Aug-26 02:58N 32°42' W 117°11'0 0.0
2017-Aug-26 02:28N 32°42' W 117°11'0 0.0
2017-Aug-26 01:04N 32°42' W 117°11'0 0.0
2017-Aug-26 00:34N 32°42' W 117°11'0 0.0
2017-Aug-25 23:46N 32°42' W 117°11'0 0.0
2017-Aug-25 23:22N 32°42' W 117°11'0 0.0
2017-Aug-25 22:52N 32°42' W 117°11'0 0.0
2017-Aug-25 22:28N 32°42' W 117°11'0 0.0
2017-Aug-25 21:46N 32°42' W 117°11'0 0.0
2017-Aug-25 21:28N 32°42' W 117°11'0 0.0
2017-Aug-25 20:52N 32°42' W 117°11'0 0.0
2017-Aug-25 20:28N 32°42' W 117°11'0 0.0
2017-Aug-25 19:52N 32°42' W 117°11'0 0.0
2017-Aug-25 19:22N 32°42' W 117°11'0 0.0
2017-Aug-25 18:40N 32°42' W 117°11'0 0.0
2017-Aug-25 18:28N 32°42' W 117°11'0 0.0
2017-Aug-25 17:58N 32°42' W 117°11'0 0.0
2017-Aug-25 17:28N 32°42' W 117°11'0 0.0
2017-Aug-25 16:52N 32°42' W 117°11'0 0.0
2017-Aug-25 15:40N 32°42' W 117°11'0 0.0
2017-Aug-25 15:28N 32°42' W 117°11'0 0.0
2017-Aug-25 14:46N 32°42' W 117°11'0 0.0
2017-Aug-25 13:46N 32°42' W 117°11'0 0.0
2017-Aug-25 13:28N 32°42' W 117°11'0 0.0
2017-Aug-25 12:58N 32°42' W 117°11'0 0.0
2017-Aug-25 12:28N 32°42' W 117°11'0 0.0
2017-Aug-25 11:58N 32°42' W 117°11'0 0.0
2017-Aug-25 11:22N 32°42' W 117°11'0 0.0
2017-Aug-25 10:58N 32°42' W 117°11'0 0.0
2017-Aug-25 10:28N 32°42' W 117°11'0 0.0
2017-Aug-25 08:52N 32°42' W 117°11'0 0.0
2017-Aug-25 06:16N 32°42' W 117°11'0 0.0
2017-Aug-25 04:04N 32°42' W 117°11'0 0.0
2017-Aug-25 03:52N 32°42' W 117°11'0 0.0
2017-Aug-25 03:28N 32°42' W 117°11'0 0.0
2017-Aug-25 01:46N 32°42' W 117°11'0 0.0
2017-Aug-25 01:10N 32°42' W 117°11'0 0.0
2017-Aug-24 23:40N 32°42' W 117°11'0 0.0
2017-Aug-24 23:22N 32°42' W 117°11'0 0.0
2017-Aug-24 22:52N 32°42' W 117°11'0 0.0
2017-Aug-24 22:28N 32°42' W 117°11'0 0.0
2017-Aug-24 20:34N 32°42' W 117°11'0 0.0
2017-Aug-24 20:22N 32°42' W 117°11'0 0.0
2017-Aug-24 19:40N 32°42' W 117°11'0 0.0
2017-Aug-24 19:28N 32°42' W 117°11'0 0.0
2017-Aug-24 17:52N 32°42' W 117°11'0 0.0
2017-Aug-24 17:28N 32°42' W 117°11'0 0.0
2017-Aug-24 16:52N 32°42' W 117°11'0 0.0
2017-Aug-24 13:52N 32°42' W 117°11'0 0.0
2017-Aug-24 13:28N 32°42' W 117°11'0 0.0
2017-Aug-24 12:58N 32°42' W 117°11'0 0.0
2017-Aug-24 12:22N 32°42' W 117°11'0 0.0
2017-Aug-24 11:46N 32°42' W 117°11'0 0.0
2017-Aug-24 11:16N 32°42' W 117°11'0 0.0
2017-Aug-24 10:58N 32°42' W 117°11'0 0.0
2017-Aug-24 09:16N 32°42' W 117°11'0 0.0
2017-Aug-24 08:46N 32°42' W 117°11'0 0.0
2017-Aug-24 06:58N 32°42' W 117°11'0 0.0
2017-Aug-24 06:22N 32°42' W 117°11'0 0.0
2017-Aug-24 04:46N 32°42' W 117°11'0 0.0
2017-Aug-24 02:04N 32°42' W 117°11'0 0.0
2017-Aug-23 23:55N 32°42' W 117°11'0 0.0
2017-Aug-23 22:10N 32°42' W 117°11'0 0.0
2017-Aug-23 20:52N 32°42' W 117°11'0 0.0
2017-Aug-23 20:16N 32°42' W 117°11'0 0.0
2017-Aug-23 17:58N 32°42' W 117°11'0 0.0
2017-Aug-23 15:28N 32°42' W 117°11'0 0.0
2017-Aug-23 14:52N 32°42' W 117°11'0 0.0
2017-Aug-23 14:28N 32°42' W 117°11'0 0.0
2017-Aug-23 13:28N 32°42' W 117°11'0 0.0
2017-Aug-23 12:16N 32°42' W 117°11'0 0.0
2017-Aug-23 11:58N 32°42' W 117°11'0 0.0
2017-Aug-23 11:22N 32°42' W 117°11'0 0.0
2017-Aug-23 10:10N 32°42' W 117°11'0 0.0
2017-Aug-23 09:58N 32°42' W 117°11'0 0.0
2017-Aug-23 03:01N 32°42' W 117°11'0 0.0
2017-Aug-23 02:40N 32°42' W 117°11'0 0.0
2017-Aug-23 02:28N 32°42' W 117°11'0 0.0
2017-Aug-23 01:58N 32°42' W 117°11'0 0.0
2017-Aug-23 01:22N 32°42' W 117°11'0 0.0
2017-Aug-22 23:46N 32°42' W 117°11'0 0.0
2017-Aug-22 23:16N 32°42' W 117°11'0 0.0
2017-Aug-22 22:58N 32°42' W 117°11'0 0.0
2017-Aug-22 21:40N 32°42' W 117°11'0 0.0
2017-Aug-22 21:22N 32°42' W 117°11'0 0.0
2017-Aug-22 20:52N 32°42' W 117°11'0 0.0
2017-Aug-22 16:37N 32°42' W 117°11'0 0.0
2017-Aug-22 13:22N 32°42' W 117°11'0 0.0
2017-Aug-22 12:40N 32°42' W 117°11'0 0.0
2017-Aug-22 12:28N 32°42' W 117°11'0 0.0
2017-Aug-22 11:52N 32°42' W 117°11'0 0.0
2017-Aug-22 10:46N 32°42' W 117°11'0 0.0
2017-Aug-22 10:16N 32°42' W 117°11'0 0.0
2017-Aug-22 00:58N 32°42' W 117°11'0 0.0
2017-Aug-21 13:40N 32°42' W 117°11'0 0.0
2017-Aug-21 11:28N 32°42' W 117°11'0 0.0
2017-Aug-21 10:58N 32°42' W 117°11'0 0.0
2017-Aug-21 10:22N 32°42' W 117°11'0 0.0
2017-Aug-21 09:16N 32°42' W 117°11'  

Dump ship's entire track history